Home   Weather   India   Jaipur   Past weeks
Flag for India

Past Weather in Jaipur, Rajasthan, India — Yesterday and Last 2 Weeks

Currently: 95 °F. Scattered clouds. (Weather station: Jaipur / Sanganer, India). See more current weather

Past Weather in Jaipur — Graph

°F

Jaipur Temperature Yesterday

Maximum temperature yesterday: 93 °F (at 2:30 pm)
Minimum temperature yesterday: 73 °F (at 6:30 am)
Average temperature yesterday: 84 °F

High & Low Weather Summary for the Past Weeks

 TemperatureHumidityPressure
High104 °F (Apr 5, 2:30 pm)69% (Apr 17, 4:30 am)29.98 "Hg (Apr 17, 4:30 am)
Low70 °F (Apr 5, 6:00 am)6% (Apr 12, 2:30 pm)29.62 "Hg (Apr 16, 5:30 pm)
Average88 °F24%29.82 "Hg
* Reported Apr 3 12:30 pm — Apr 18 12:30 pm, Jaipur. Weather by CustomWeather, © 2021

Note: Actual official high and low records may vary slightly from our data, if they occured in-between our weather recording intervals... More about our weather records

Jaipur Weather History for the Previous 24 Hours

Scroll right to see more
 ConditionsComfort  
Time TempWeatherWind HumidityBarometerVisibility
12:30 pm
Sun, Apr 18
95 °FHaze.2 mph28%29.92 "Hg3 mi
12:00 pm95 °FHaze.5 mph30%29.95 "Hg3 mi
11:30 am93 °FHaze.6 mph32%29.95 "Hg3 mi
11:00 am91 °FHaze.5 mph32%29.95 "Hg3 mi
10:30 am90 °FHaze.5 mph33%29.98 "Hg2 mi
10:00 am88 °FHaze.6 mph35%29.98 "Hg2 mi
9:30 am86 °FHaze.5 mph40%29.98 "Hg2 mi
9:00 am84 °FHaze.2 mph43%29.95 "Hg1 mi
8:00 am79 °FScattered clouds.2 mph45%29.95 "Hg1 mi
7:00 am75 °FScattered clouds.5 mph54%29.92 "Hg1 mi
6:30 am75 °FScattered clouds.5 mph54%29.89 "Hg1 mi
6:00 am75 °FPassing clouds.5 mph54%29.89 "Hg1 mi
5:30 am77 °FPassing clouds.5 mph51%29.89 "Hg1 mi
5:00 am77 °FPassing clouds.3 mph51%29.86 "Hg1 mi
4:30 am79 °FPassing clouds.3 mph45%29.86 "Hg1 mi
4:00 am79 °FPassing clouds.3 mph48%29.86 "Hg1 mi
3:30 am81 °FPassing clouds.2 mph42%29.86 "Hg1 mi
3:00 am81 °FPassing clouds.2 mph42%29.86 "Hg1 mi
2:00 am82 °FPassing clouds.2 mph40%29.86 "Hg1 mi
1:30 am82 °FPassing clouds.2 mph40%29.86 "Hg1 mi
1:00 am82 °FPassing clouds.5 mph42%29.89 "Hg1 mi
12:30 am82 °FPassing clouds.5 mph40%29.89 "Hg1 mi
12:00 am84 °FPassing clouds.3 mph40%29.89 "Hg2 mi
11:30 pm
Sat, Apr 17
84 °FPassing clouds.2 mph40%29.89 "Hg2 mi
11:00 pm84 °FPassing clouds.2 mph40%29.89 "Hg2 mi
10:30 pm86 °FPassing clouds.2 mph38%29.89 "Hg2 mi
10:00 pm86 °FPassing clouds.2 mph38%29.86 "Hg2 mi
9:30 pm86 °FPassing clouds.3 mph35%29.86 "Hg2 mi
9:00 pm86 °FPassing clouds.3 mph35%29.86 "Hg2 mi
8:30 pm88 °FPassing clouds.3 mph33%29.83 "Hg2 mi
8:00 pm88 °FPassing clouds.3 mph31%29.83 "Hg2 mi
7:30 pm88 °FPassing clouds.5 mph31%29.83 "Hg2 mi
7:00 pm88 °FScattered clouds.5 mph33%29.80 "Hg2 mi
6:30 pm91 °FScattered clouds.5 mph28%29.80 "Hg3 mi
6:00 pm91 °FScattered clouds.5 mph28%29.80 "Hg3 mi
5:30 pm91 °FScattered clouds.5 mph28%29.80 "Hg3 mi
5:00 pm91 °FScattered clouds.6 mph28%29.80 "Hg3 mi
4:30 pm93 °FScattered clouds.5 mph26%29.80 "Hg3 mi
4:00 pm93 °FScattered clouds.5 mph26%29.80 "Hg3 mi
3:30 pm93 °FScattered clouds.6 mph28%29.80 "Hg3 mi
3:00 pm93 °FScattered clouds.7 mph28%29.83 "Hg3 mi
2:30 pm93 °FScattered clouds.7 mph28%29.83 "Hg3 mi
2:00 pm91 °FScattered clouds.9 mph24%29.83 "Hg3 mi
1:30 pm90 °FHaze.7 mph27%29.86 "Hg3 mi
1:00 pm88 °FHaze.7 mph29%29.86 "Hg2 mi
Weather by CustomWeather, © 2021

See weather overview